createdAt,value
2019-04-11T00:02:29.622Z,96.10
2019-04-11T00:04:58.779Z,96.40
2019-04-11T00:07:27.989Z,96.00
2019-04-11T00:09:56.794Z,96.00
2019-04-11T00:12:26.271Z,95.80
2019-04-11T00:14:55.951Z,96.60
2019-04-11T00:17:24.562Z,96.80
2019-04-11T00:19:53.755Z,96.00
2019-04-11T00:22:23.545Z,95.80
2019-04-11T00:24:53.393Z,95.70
2019-04-11T00:27:21.982Z,96.00
2019-04-11T00:29:51.427Z,95.70
2019-04-11T00:32:21.170Z,94.60
2019-04-11T00:34:49.751Z,96.40
2019-04-11T00:37:19.054Z,96.20
2019-04-11T00:39:47.933Z,96.20
2019-04-11T00:42:16.631Z,96.30
2019-04-11T00:44:45.290Z,96.10
2019-04-11T00:47:13.767Z,95.50
2019-04-11T00:49:42.951Z,95.30
2019-04-11T00:52:12.093Z,95.40
2019-04-11T00:54:40.800Z,95.60
2019-04-11T00:57:09.251Z,95.70
2019-04-11T00:59:38.451Z,95.50
2019-04-11T01:02:07.709Z,96.20
2019-04-11T01:04:37.089Z,95.80
2019-04-11T01:07:06.799Z,95.20
2019-04-11T01:09:35.364Z,95.50
2019-04-11T01:12:04.643Z,95.30
2019-04-11T01:14:34.192Z,95.40
2019-04-11T01:17:03.667Z,95.30
2019-04-11T01:19:33.006Z,95.10
2019-04-11T01:22:01.587Z,95.70
2019-04-11T01:24:30.076Z,95.60
2019-04-11T01:26:59.327Z,96.00
2019-04-11T01:29:28.332Z,95.70
2019-04-11T01:32:02.241Z,97.00
2019-04-11T01:34:30.861Z,96.60
2019-04-11T01:36:59.628Z,96.40
2019-04-11T01:39:38.745Z,96.60
2019-04-11T01:42:07.254Z,96.50
2019-04-11T01:44:36.682Z,97.30
2019-04-11T01:47:07.028Z,96.80
2019-04-11T01:49:36.481Z,97.00
2019-04-11T01:52:06.436Z,97.10
2019-04-11T01:54:35.485Z,97.40
2019-04-11T01:57:05.437Z,97.70
2019-04-11T01:59:33.979Z,97.60
2019-04-11T02:02:19.190Z,97.50
2019-04-11T02:04:56.469Z,97.50
2019-04-11T02:07:25.083Z,97.30
2019-04-11T02:09:54.729Z,97.40
2019-04-11T02:12:23.395Z,97.60
2019-04-11T02:14:52.189Z,97.70
2019-04-11T02:17:20.976Z,97.60
2019-04-11T02:19:50.261Z,97.60
2019-04-11T02:22:40.336Z,96.80
2019-04-11T02:25:14.481Z,97.20
2019-04-11T02:27:44.064Z,97.40
2019-04-11T02:30:14.399Z,97.50
2019-04-11T02:32:44.918Z,97.50
2019-04-11T02:35:15.302Z,97.30
2019-04-11T02:37:44.463Z,97.70
2019-04-11T02:40:15.452Z,97.60
2019-04-11T02:42:45.673Z,96.90
2019-04-11T02:45:27.928Z,97.20
2019-04-11T02:47:48.137Z,97.10
2019-04-11T02:50:17.109Z,97.60
2019-04-11T02:52:47.340Z,97.50
2019-04-11T02:55:17.093Z,97.10
2019-04-11T02:57:46.118Z,96.80
2019-04-11T03:00:15.888Z,96.40
2019-04-11T03:02:44.956Z,96.80
2019-04-11T03:05:13.797Z,97.20
2019-04-11T03:07:42.681Z,97.60
2019-04-11T03:10:13.572Z,97.50
2019-04-11T03:12:43.637Z,97.00
2019-04-11T03:15:29.025Z,97.00
2019-04-11T03:17:45.678Z,96.70
2019-04-11T03:20:23.919Z,97.30
2019-04-11T03:22:45.322Z,97.10
2019-04-11T03:25:13.909Z,96.80
2019-04-11T03:27:43.337Z,97.40
2019-04-11T03:30:19.610Z,96.60
2019-04-11T03:33:43.507Z,96.40
2019-04-11T03:36:08.708Z,96.10
2019-04-11T03:38:09.133Z,96.10
2019-04-11T03:40:30.764Z,96.50
2019-04-11T03:42:59.509Z,96.80
2019-04-11T03:45:40.138Z,96.60
2019-04-11T03:48:03.710Z,96.90
2019-04-11T03:50:20.895Z,97.00
2019-04-11T03:52:47.001Z,96.50
2019-04-11T03:55:15.842Z,96.70
2019-04-11T03:57:47.029Z,97.00
2019-04-11T04:00:15.850Z,96.80
2019-04-11T04:02:46.592Z,97.10
2019-04-11T04:05:17.431Z,96.90
2019-04-11T04:07:46.534Z,97.00
2019-04-11T04:10:18.408Z,97.00
2019-04-11T04:12:47.532Z,97.10
2019-04-11T04:15:36.117Z,97.40
2019-04-11T04:17:55.111Z,98.10
2019-04-11T04:20:32.952Z,97.40
2019-04-11T04:23:11.863Z,97.90
2019-04-11T04:25:42.763Z,97.70
2019-04-11T04:28:11.858Z,97.60
2019-04-11T04:30:42.874Z,97.30
2019-04-11T04:33:12.986Z,97.70
2019-04-11T04:35:42.318Z,97.10
2019-04-11T04:38:13.616Z,97.40
2019-04-11T04:41:00.394Z,97.90
2019-04-11T04:43:16.551Z,97.90
2019-04-11T04:46:07.415Z,97.50
2019-04-11T04:48:18.307Z,98.10
2019-04-11T04:50:46.790Z,97.90
2019-04-11T04:53:16.204Z,97.60
2019-04-11T04:55:47.847Z,97.90
2019-04-11T04:58:17.933Z,97.70
2019-04-11T05:00:48.390Z,97.60
2019-04-11T05:03:17.736Z,98.00
2019-04-11T05:05:46.600Z,98.60
2019-04-11T05:08:16.446Z,98.30
2019-04-11T05:10:45.097Z,98.00
2019-04-11T05:13:15.120Z,98.10
2019-04-11T05:15:45.286Z,98.00
2019-04-11T05:18:16.932Z,97.90
2019-04-11T05:20:44.263Z,97.20
2019-04-11T05:23:13.734Z,97.70
2019-04-11T05:25:42.570Z,97.80
2019-04-11T05:28:12.030Z,97.80
2019-04-11T05:30:40.603Z,98.00
2019-04-11T05:33:09.580Z,98.70
2019-04-11T05:35:38.191Z,98.20
2019-04-11T05:38:06.675Z,98.70
2019-04-11T05:40:35.138Z,98.80
2019-04-11T05:43:03.905Z,98.60
2019-04-11T05:45:33.722Z,98.50
2019-04-11T05:48:03.600Z,98.20
2019-04-11T05:50:32.528Z,98.10
2019-04-11T05:53:03.523Z,97.90
2019-04-11T05:55:34.118Z,98.00
2019-04-11T05:58:08.671Z,98.50
2019-04-11T06:00:48.782Z,98.60
2019-04-11T06:03:17.673Z,98.40
2019-04-11T06:05:55.115Z,98.60
2019-04-11T06:08:27.116Z,98.50
2019-04-11T06:11:14.474Z,98.40
2019-04-11T06:13:52.982Z,98.00
2019-04-11T06:16:22.885Z,98.60
2019-04-11T06:19:02.587Z,99.00
2019-04-11T06:21:33.733Z,99.40
2019-04-11T06:24:14.085Z,99.20
2019-04-11T06:26:59.567Z,98.10
2019-04-11T06:29:45.931Z,97.60
2019-04-11T06:32:21.992Z,97.90
2019-04-11T06:35:01.887Z,97.70
2019-04-11T06:37:48.230Z,98.40
2019-04-11T06:40:27.732Z,98.10
2019-04-11T06:43:01.440Z,97.60
2019-04-11T06:45:48.135Z,98.20
2019-04-11T06:48:18.306Z,98.00
2019-04-11T06:50:57.644Z,98.50
2019-04-11T06:53:28.098Z,98.40
2019-04-11T06:56:14.764Z,97.60
2019-04-11T06:58:45.762Z,97.60
2019-04-11T07:01:16.128Z,98.40
2019-04-11T07:03:46.923Z,98.20
2019-04-11T07:06:17.543Z,98.60
2019-04-11T07:08:51.146Z,98.30
2019-04-11T07:11:24.179Z,98.10
2019-04-11T07:14:00.277Z,98.30
2019-04-11T07:16:29.648Z,97.90
2019-04-11T07:19:02.900Z,97.70
2019-04-11T07:21:33.335Z,98.00
2019-04-11T07:24:20.310Z,98.40
2019-04-11T07:26:50.085Z,98.30
2019-04-11T07:29:23.867Z,98.20
2019-04-11T07:32:06.964Z,98.10
2019-04-11T07:34:43.684Z,98.50
2019-04-11T07:37:32.670Z,98.40
2019-04-11T07:40:15.568Z,98.30
2019-04-11T07:42:52.817Z,97.70
2019-04-11T07:45:40.682Z,97.50
2019-04-11T07:48:17.271Z,97.70
2019-04-11T07:50:46.537Z,98.60
2019-04-11T07:53:17.456Z,98.30
2019-04-11T07:55:46.583Z,98.50
2019-04-11T07:58:23.928Z,98.60
2019-04-11T08:01:03.675Z,98.80
2019-04-11T08:03:42.623Z,98.30
2019-04-11T08:06:13.300Z,97.60
2019-04-11T08:09:00.370Z,97.60
2019-04-11T08:11:31.717Z,98.20
2019-04-11T08:14:04.389Z,98.20
2019-04-11T08:16:35.039Z,98.10
2019-04-11T08:19:20.993Z,98.10
2019-04-11T08:21:56.899Z,98.20
2019-04-11T08:24:44.788Z,98.30
2019-04-11T08:27:17.988Z,99.00
2019-04-11T08:29:48.883Z,99.30
2019-04-11T08:32:36.034Z,98.80
2019-04-11T08:35:12.603Z,98.70
2019-04-11T08:38:01.003Z,98.70
2019-04-11T08:40:31.340Z,98.60
2019-04-11T08:43:10.919Z,98.80
2019-04-11T08:45:42.272Z,98.90
2019-04-11T08:48:12.896Z,98.60
2019-04-11T08:50:48.963Z,98.70
2019-04-11T08:53:19.107Z,98.10
2019-04-11T08:55:55.284Z,97.50
2019-04-11T08:58:22.615Z,98.10
2019-04-11T09:01:00.481Z,98.50
2019-04-11T09:03:37.729Z,98.50
2019-04-11T09:06:08.459Z,99.20
2019-04-11T09:08:44.823Z,98.50
2019-04-11T09:11:31.407Z,98.70
2019-04-11T09:14:11.386Z,98.20
2019-04-11T09:16:41.879Z,98.00
2019-04-11T09:19:14.859Z,97.70
2019-04-11T09:22:00.964Z,98.10
2019-04-11T09:24:43.236Z,98.30
2019-04-11T09:27:30.952Z,98.10
2019-04-11T09:30:11.420Z,98.00
2019-04-11T09:32:48.787Z,97.90
2019-04-11T09:35:22.209Z,98.00
2019-04-11T09:37:51.702Z,97.60
2019-04-11T09:40:39.940Z,97.90
2019-04-11T09:43:10.048Z,98.90
2019-04-11T09:45:40.352Z,98.50
2019-04-11T09:48:26.766Z,96.80
2019-04-11T09:51:13.535Z,97.50
2019-04-11T09:54:01.465Z,97.70
2019-04-11T09:56:37.861Z,97.40
2019-04-11T09:59:14.333Z,97.20
2019-04-11T10:02:10.688Z,97.40
2019-04-11T10:04:41.690Z,98.10
2019-04-11T10:07:24.008Z,98.00
2019-04-11T10:09:55.376Z,97.30
2019-04-11T10:12:40.930Z,96.50
2019-04-11T10:15:11.291Z,97.30
2019-04-11T10:17:42.550Z,97.00
2019-04-11T10:20:12.958Z,97.20
2019-04-11T10:23:01.362Z,97.10
2019-04-11T10:25:32.157Z,95.60
2019-04-11T10:28:02.877Z,95.90
2019-04-11T10:30:50.375Z,95.90
2019-04-11T10:33:20.683Z,95.60
2019-04-11T10:35:50.818Z,95.70
2019-04-11T10:38:20.909Z,95.50
2019-04-11T10:41:00.898Z,95.10
2019-04-11T10:43:32.070Z,96.30
2019-04-11T10:46:19.391Z,96.40
2019-04-11T10:48:50.390Z,96.50
2019-04-11T10:51:33.811Z,96.30
2019-04-11T10:54:04.317Z,95.60
2019-04-11T10:56:37.317Z,95.40
2019-04-11T10:59:07.021Z,94.20
2019-04-11T11:01:37.232Z,94.60
2019-04-11T11:04:07.459Z,95.30
2019-04-11T11:06:36.022Z,93.60
2019-04-11T11:09:08.172Z,94.20
2019-04-11T11:11:38.654Z,95.20
2019-04-11T11:14:18.722Z,95.40
2019-04-11T11:16:52.790Z,94.30
2019-04-11T11:19:48.750Z,94.10
2019-04-11T11:22:12.853Z,94.40
2019-04-11T11:24:44.205Z,93.40
2019-04-11T11:27:13.798Z,93.60
2019-04-11T11:30:02.467Z,92.80
2019-04-11T11:32:31.512Z,93.20
2019-04-11T11:35:01.744Z,93.50
2019-04-11T11:37:37.534Z,92.40
2019-04-11T11:40:25.782Z,93.20
2019-04-11T11:43:08.715Z,94.50
2019-04-11T11:45:41.743Z,94.60
2019-04-11T11:48:17.347Z,94.20
2019-04-11T11:50:42.711Z,94.30
2019-04-11T11:53:31.382Z,93.00
2019-04-11T11:56:00.535Z,93.40
2019-04-11T11:58:44.949Z,93.90
2019-04-11T12:01:15.619Z,94.30
2019-04-11T12:03:49.127Z,93.20
2019-04-11T12:06:22.272Z,92.60
2019-04-11T12:08:51.505Z,93.50
2019-04-11T12:11:21.883Z,92.20
2019-04-11T12:14:07.713Z,93.10
2019-04-11T12:17:00.050Z,92.60
2019-04-11T12:19:28.991Z,92.40
2019-04-11T12:21:59.919Z,92.40
2019-04-11T12:24:36.499Z,92.50
2019-04-11T12:27:11.435Z,91.80
2019-04-11T12:29:58.157Z,92.50
2019-04-11T12:32:34.751Z,92.60
2019-04-11T12:35:24.712Z,92.20
2019-04-11T12:37:55.967Z,92.80
2019-04-11T12:40:38.224Z,92.10
2019-04-11T12:43:08.419Z,90.80
2019-04-11T12:45:41.236Z,91.80
2019-04-11T12:48:11.954Z,90.80
2019-04-11T12:50:58.270Z,92.00
2019-04-11T12:53:26.834Z,91.20
2019-04-11T12:56:05.525Z,91.70
2019-04-11T12:58:38.329Z,91.80
2019-04-11T13:01:14.489Z,91.70
2019-04-11T13:04:02.483Z,91.60
2019-04-11T13:06:49.495Z,91.40
2019-04-11T13:09:25.554Z,90.50
2019-04-11T13:11:58.643Z,90.80
2019-04-11T13:14:34.461Z,90.90
2019-04-11T13:17:07.361Z,90.60
2019-04-11T13:19:40.326Z,90.30
2019-04-11T13:22:10.464Z,91.50
2019-04-11T13:24:40.554Z,90.70
2019-04-11T13:27:10.745Z,91.20
2019-04-11T13:29:44.007Z,90.90
2019-04-11T13:32:32.440Z,91.20
2019-04-11T13:35:02.588Z,90.20
2019-04-11T13:37:50.825Z,91.40
2019-04-11T13:40:37.446Z,90.40
2019-04-11T13:43:10.494Z,89.60
2019-04-11T13:45:49.450Z,91.00
2019-04-11T13:48:36.018Z,91.30
2019-04-11T13:51:07.585Z,90.80
2019-04-11T13:53:37.897Z,89.50
2019-04-11T13:56:06.391Z,90.70
2019-04-11T13:58:52.674Z,91.10
2019-04-11T14:01:21.227Z,90.50
2019-04-11T14:04:00.169Z,90.30
2019-04-11T14:06:28.694Z,88.70
2019-04-11T14:09:05.015Z,91.30
2019-04-11T14:11:34.332Z,90.90
2019-04-11T14:14:19.448Z,89.80
2019-04-11T14:16:52.658Z,90.40
2019-04-11T14:19:25.743Z,89.70
2019-04-11T14:21:54.412Z,90.00
2019-04-11T14:24:30.693Z,89.90
2019-04-11T14:27:00.904Z,90.30
2019-04-11T14:29:47.236Z,90.00
2019-04-11T14:32:17.418Z,89.10
2019-04-11T14:34:50.516Z,90.10
2019-04-11T14:37:38.606Z,89.50
2019-04-11T14:40:18.579Z,85.40
2019-04-11T14:42:48.691Z,86.90
2019-04-11T14:45:18.891Z,87.20
2019-04-11T14:48:05.377Z,86.90
2019-04-11T14:50:40.629Z,88.00
2019-04-11T14:53:07.357Z,87.40
2019-04-11T14:55:36.902Z,84.00
2019-04-11T14:58:09.578Z,84.00
2019-04-11T15:00:38.575Z,83.70
2019-04-11T15:03:08.700Z,83.40
2019-04-11T15:05:45.285Z,84.20
2019-04-11T15:08:17.684Z,83.80
2019-04-11T15:10:53.198Z,85.80
2019-04-11T15:13:23.322Z,85.80
2019-04-11T15:16:11.492Z,85.00
2019-04-11T15:18:41.622Z,83.20
2019-04-11T15:21:11.732Z,81.90
2019-04-11T15:23:40.997Z,83.60
2019-04-11T15:26:29.192Z,82.30
2019-04-11T15:28:59.309Z,79.90
2019-04-11T15:31:39.247Z,81.40
2019-04-11T15:34:13.454Z,81.50
2019-04-11T15:36:43.538Z,82.90
2019-04-11T15:39:19.503Z,80.70
2019-04-11T15:41:49.591Z,78.30
2019-04-11T15:44:28.740Z,83.00
2019-04-11T15:47:00.781Z,79.50
2019-04-11T15:49:42.510Z,80.00
2019-04-11T15:52:12.376Z,80.00
2019-04-11T15:54:44.917Z,81.20
2019-04-11T15:57:15.359Z,81.30
2019-04-11T15:59:48.251Z,82.80
2019-04-11T16:02:30.544Z,83.20
2019-04-11T16:05:02.157Z,81.10
2019-04-11T16:07:50.645Z,81.60
2019-04-11T16:10:20.875Z,79.40
2019-04-11T16:12:57.131Z,83.00
2019-04-11T16:15:32.802Z,82.50
2019-04-11T16:18:19.444Z,83.50
2019-04-11T16:20:51.461Z,82.20
2019-04-11T16:23:27.231Z,83.10
2019-04-11T16:25:55.952Z,83.10
2019-04-11T16:28:35.810Z,80.60
2019-04-11T16:31:04.851Z,80.50
2019-04-11T16:33:45.823Z,81.20
2019-04-11T16:36:18.315Z,82.30
2019-04-11T16:39:05.236Z,78.90
2019-04-11T16:41:53.875Z,78.30
2019-04-11T16:44:25.602Z,82.30
2019-04-11T16:47:04.229Z,81.50
2019-04-11T16:49:32.701Z,77.80
2019-04-11T16:52:01.175Z,80.70
2019-04-11T16:54:29.644Z,80.30
2019-04-11T16:56:58.113Z,82.00
2019-04-11T16:59:26.606Z,81.00
2019-04-11T17:01:55.147Z,79.40
2019-04-11T17:04:25.822Z,82.20
2019-04-11T17:06:58.177Z,79.90
2019-04-11T17:09:40.337Z,80.00
2019-04-11T17:12:09.223Z,82.10
2019-04-11T17:14:37.687Z,80.10
2019-04-11T17:17:14.831Z,78.60
2019-04-11T17:19:36.886Z,83.80
2019-04-11T17:22:05.423Z,80.60
2019-04-11T17:24:33.882Z,82.70
2019-04-11T17:27:02.689Z,81.50
2019-04-11T17:29:31.201Z,82.90
2019-04-11T17:31:59.666Z,83.70
2019-04-11T17:34:32.127Z,82.70
2019-04-11T17:36:58.415Z,81.80
2019-04-11T17:39:26.901Z,83.70
2019-04-11T17:41:55.369Z,82.20
2019-04-11T17:44:23.853Z,84.00
2019-04-11T17:46:52.324Z,83.30
2019-04-11T17:49:20.794Z,85.60
2019-04-11T17:51:55.765Z,82.90
2019-04-11T17:54:19.599Z,82.80
2019-04-11T17:56:48.071Z,82.70
2019-04-11T17:59:16.565Z,82.30
2019-04-11T18:01:45.023Z,85.30
2019-04-11T18:04:14.105Z,84.50
2019-04-11T18:06:46.884Z,83.20
2019-04-11T18:09:13.093Z,84.20
2019-04-11T18:11:41.558Z,82.90
2019-04-11T18:14:10.010Z,85.80
2019-04-11T18:16:38.566Z,86.40
2019-04-11T18:19:09.662Z,85.00
2019-04-11T18:21:37.704Z,87.10
2019-04-11T18:24:06.464Z,88.10
2019-04-11T18:26:34.997Z,88.40
2019-04-11T18:29:03.938Z,87.30
2019-04-11T18:31:32.416Z,86.60
2019-04-11T18:34:02.403Z,85.20
2019-04-11T18:36:31.956Z,87.00
2019-04-11T18:39:05.652Z,85.60
2019-04-11T18:41:31.547Z,85.00
2019-04-11T18:44:00.017Z,86.60
2019-04-11T18:46:28.852Z,85.10
2019-04-11T18:48:57.361Z,87.70
2019-04-11T18:51:26.221Z,86.20
2019-04-11T18:53:54.669Z,85.20
2019-04-11T18:56:23.149Z,87.20
2019-04-11T18:58:51.599Z,89.10
2019-04-11T19:01:20.183Z,89.30
2019-04-11T19:03:48.757Z,90.00
2019-04-11T19:06:27.449Z,87.50
2019-04-11T19:08:47.415Z,90.00
2019-04-11T19:11:16.360Z,89.30
2019-04-11T19:13:47.071Z,90.10
2019-04-11T19:16:16.113Z,90.00
2019-04-11T19:18:47.823Z,88.30
2019-04-11T19:21:15.531Z,89.60
2019-04-11T19:23:44.263Z,89.10
2019-04-11T19:26:14.745Z,86.20
2019-04-11T19:28:42.931Z,85.80
2019-04-11T19:31:12.386Z,87.00
2019-04-11T19:33:41.476Z,88.30
2019-04-11T19:36:12.122Z,89.40
2019-04-11T19:38:43.053Z,88.20
2019-04-11T19:41:10.389Z,87.90
2019-04-11T19:43:40.776Z,87.50
2019-04-11T19:46:09.065Z,86.80
2019-04-11T19:48:37.784Z,86.90
2019-04-11T19:51:06.579Z,86.90
2019-04-11T19:53:35.034Z,87.00
2019-04-11T19:56:05.441Z,87.70
2019-04-11T19:58:34.504Z,86.60
2019-04-11T20:01:02.954Z,87.40
2019-04-11T20:03:31.838Z,89.50
2019-04-11T20:06:00.632Z,89.40
2019-04-11T20:08:29.433Z,87.20
2019-04-11T20:11:01.103Z,87.90
2019-04-11T20:13:31.994Z,85.70
2019-04-11T20:15:58.304Z,89.90
2019-04-11T20:18:26.806Z,89.60
2019-04-11T20:20:55.264Z,90.00
2019-04-11T20:23:23.717Z,89.10
2019-04-11T20:25:52.199Z,89.40
2019-04-11T20:28:20.869Z,89.80
2019-04-11T20:30:49.541Z,88.30
2019-04-11T20:33:26.972Z,88.40
2019-04-11T20:35:48.228Z,88.30
2019-04-11T20:38:16.784Z,86.20
2019-04-11T20:40:45.356Z,87.70
2019-04-11T20:43:13.820Z,86.20
2019-04-11T20:45:43.421Z,88.00
2019-04-11T20:48:11.899Z,87.70
2019-04-11T20:50:40.359Z,86.70
2019-04-11T20:53:13.127Z,88.80
2019-04-11T20:55:39.853Z,87.70
2019-04-11T20:58:10.374Z,87.10
2019-04-11T21:00:49.599Z,88.00
2019-04-11T21:03:09.106Z,86.40
2019-04-11T21:05:37.566Z,86.30
2019-04-11T21:08:06.061Z,88.80
2019-04-11T21:10:34.606Z,88.10
2019-04-11T21:13:06.893Z,87.40
2019-04-11T21:15:33.344Z,87.50
2019-04-11T21:18:01.809Z,87.60
2019-04-11T21:20:30.285Z,87.30
2019-04-11T21:22:58.768Z,87.60
2019-04-11T21:25:28.588Z,87.40
2019-04-11T21:27:59.125Z,86.90
2019-04-11T21:30:27.933Z,85.40
2019-04-11T21:32:58.023Z,85.90
2019-04-11T21:35:26.501Z,86.60
2019-04-11T21:37:57.889Z,87.00
2019-04-11T21:40:26.217Z,86.50
2019-04-11T21:42:54.695Z,86.50
2019-04-11T21:45:23.175Z,85.70
2019-04-11T21:47:51.948Z,86.40
2019-04-11T21:50:20.740Z,85.10
2019-04-11T21:52:49.209Z,86.20
2019-04-11T21:55:17.673Z,87.00
2019-04-11T21:57:48.864Z,87.30
2019-04-11T22:00:22.161Z,87.90
2019-04-11T22:02:51.917Z,87.80
2019-04-11T22:05:19.943Z,87.80
2019-04-11T22:07:48.407Z,89.50
2019-04-11T22:10:16.900Z,89.60
2019-04-11T22:12:45.665Z,88.30
2019-04-11T22:15:14.544Z,89.00
2019-04-11T22:17:45.343Z,88.20
2019-04-11T22:20:14.071Z,89.00
2019-04-11T22:22:43.524Z,87.30
2019-04-11T22:25:12.140Z,86.90
2019-04-11T22:27:40.586Z,87.30
2019-04-11T22:30:09.319Z,87.50
2019-04-11T22:32:37.771Z,88.30
2019-04-11T22:35:06.562Z,87.70
2019-04-11T22:37:35.047Z,87.50
2019-04-11T22:40:05.360Z,89.10
2019-04-11T22:42:33.839Z,88.60
2019-04-11T22:45:02.305Z,88.50
2019-04-11T22:47:31.100Z,88.40
2019-04-11T22:49:59.582Z,88.60
2019-04-11T22:52:28.059Z,88.70
2019-04-11T22:54:56.533Z,88.80
2019-04-11T22:57:25.011Z,89.30
2019-04-11T22:59:53.475Z,89.60
2019-04-11T23:02:23.595Z,88.90
2019-04-11T23:04:52.069Z,89.10
2019-04-11T23:07:20.533Z,89.20
2019-04-11T23:09:49.533Z,89.40
2019-04-11T23:12:18.150Z,89.10
2019-04-11T23:14:46.950Z,88.90
2019-04-11T23:17:15.427Z,88.70
2019-04-11T23:19:44.136Z,88.80
2019-04-11T23:22:13.615Z,89.60
2019-04-11T23:24:42.075Z,89.80
2019-04-11T23:27:10.790Z,89.60
2019-04-11T23:29:39.303Z,89.40
2019-04-11T23:32:08.267Z,89.50
2019-04-11T23:34:36.733Z,90.10
2019-04-11T23:37:05.576Z,90.00
2019-04-11T23:39:34.427Z,89.60
2019-04-11T23:42:03.041Z,90.00
2019-04-11T23:44:31.508Z,89.90
2019-04-11T23:46:59.961Z,89.60
2019-04-11T23:49:28.756Z,89.60
2019-04-11T23:51:57.224Z,89.20
2019-04-11T23:54:28.954Z,89.60
2019-04-11T23:56:55.885Z,89.90
2019-04-11T23:59:24.741Z,89.90
